• Join FlightAware (Why Join?)
  • Login
  • US Flag 
11:59AM EDT


 

Airport Tracker/Info


-or-


 

Live Flight TrackerFlight Track Log ✈ SWA2131 ✈ 13-Apr-2013 ✈ KDEN - KMDW

Flight Track Log - Related Links

Times and Time Zones

All times are in EDT time to prevent confusion due to time zone crossing. See the SWA2131 flight status page for this flight to view local times or setup timezone preferences in your user account.

Time Position Orientation Groundspeed Altitude Reporting Facility
EDT Latitude Longitude Course Direction KTS MPH feet Rate Location/Type
04:07PM 39.8833 -104.5667 78° East 205 236 8,000  Level Denver TRACON
04:08PM 39.8644 -104.4178 99° East 315 362 10,500 2,400 Climbing Denver Center
04:09PM 39.8522 -104.2833 97° East 353 406 14,000 3,120 Climbing Denver Center
04:10PM 39.8603 -104.1442 86° East 384 442 16,900 3,120 Climbing Denver Center
04:11PM 39.8686 -104.0000 86° East 395 455 20,500 3,000 Climbing Denver Center
04:12PM 39.8775 -103.8397 86° East 412 474 23,100 2,040 Climbing Denver Center
04:13PM 39.8861 -103.6992 85° East 414 476 24,700 1,740 Climbing Denver Center
04:14PM 39.9069 -103.5361 80° East 449 517 26,700 1,860 Climbing Denver Center
04:15PM 39.9258 -103.3669 82° East 464 534 28,600 1,860 Climbing Denver Center
04:16PM 39.9469 -103.1642 82° East 481 554 30,600 1,500 Climbing Denver Center
04:17PM 39.9603 -103.0458 82° East 488 562 31,700 1,860 Climbing Denver Center
04:18PM 39.9856 -102.8125 82° East 486 559 34,500 2,100 Climbing Denver Center
04:19PM 40.0042 -102.6522 81° East 479 551 36,100 1,560 Climbing Denver Center
04:20PM 40.0228 -102.4631 83° East 473 544 37,800 1,380 Climbing Denver Center
04:21PM 40.0400 -102.3053 82° East 462 532 39,000 540 Climbing Denver Center
04:22PM 40.0586 -102.1208 82° East 461 531 39,000  Level Denver Center
04:23PM 40.0747 -101.9611 82° East 465 535 39,000  Level Denver Center
04:25PM 40.0928 -101.8014 82° East 466 536 39,000  Level Denver Center
04:26PM 40.1114 -101.6103 83° East 474 545 39,000  Level Denver Center
04:27PM 40.1267 -101.4442 83° East 480 552 39,000  Level Denver Center
04:28PM 40.1447 -101.2511 83° East 482 555 39,000  Level Denver Center
04:29PM 40.1592 -101.0856 83° East 481 554 39,000  Level Denver Center
04:30PM 40.1767 -100.8942 83° East 479 551 39,000  Level Denver Center
04:31PM 40.1922 -100.7281 83° East 483 556 39,000  Level Denver Center
04:32PM 40.2050 -100.5600 84° East 486 559 39,000  Level Denver Center
04:33PM 40.2075 -100.3628 89° East 489 563 39,000  Level Denver Center
04:34PM 40.2103 -100.1939 89° East 489 563 39,000  Level Denver Center
04:35PM 40.2131 -99.9967 89° East 488 562 39,000  Level Denver Center
04:36PM 40.2156 -99.8172 89° East 493 567 39,000  Level Denver Center
04:37PM 40.2172 -99.6422 89° East 484 557 39,000  Level Denver Center
04:38PM 40.2189 -99.4650 89° East 487 560 39,000  Level Denver Center
04:39PM 40.2197 -99.2900 90° East 483 556 39,000  Level Denver Center
04:40PM 40.2217 -99.1136 89° East 486 559 39,000  Level Denver Center
04:41PM 40.2222 -98.9381 90° East 485 558 39,000  Level Denver Center
04:41PM 40.2231 -98.8681 89° East 486 559 39,000  Level Minneapolis Center
04:42PM 40.2231 -98.6944 90° East 483 556 39,000  Level Minneapolis Center
04:43PM 40.2231 -98.5219 90° East 478 550 39,000  Level Minneapolis Center
04:44PM 40.2228 -98.3156 90° East 476 548 39,000  Level Minneapolis Center
04:45PM 40.2225 -98.1442 90° East 473 544 39,000  Level Minneapolis Center
04:46PM 40.2219 -97.9731 90° East 473 544 39,000  Level Minneapolis Center
04:47PM 40.2200 -97.7989 91° East 477 549 39,000  Level Minneapolis Center
04:48PM 40.2186 -97.6258 91° East 477 549 39,000  Level Minneapolis Center
04:49PM 40.2178 -97.4519 90° East 478 550 39,000  Level Minneapolis Center
04:50PM 40.2158 -97.2717 91° East 479 551 39,000  Level Minneapolis Center
04:51PM 40.2142 -97.0989 91° East 476 548 39,000  Level Minneapolis Center
04:53PM 40.2128 -96.9275 91° East 474 545 39,000  Level Minneapolis Center
04:54PM 40.2100 -96.7553 91° East 474 545 39,000  Level Minneapolis Center
04:55PM 40.2072 -96.5497 91° East 474 545 39,000  Level Minneapolis Center
04:56PM 40.2036 -96.3767 92° East 476 548 39,000  Level Minneapolis Center
04:57PM 40.2028 -96.2031 90° East 477 549 39,000  Level Minneapolis Center
04:58PM 40.2325 -96.0311 77° East 484 557 39,000  Level Minneapolis Center
04:59PM 40.2644 -95.8575 76° East 490 564 39,000  Level Minneapolis Center
05:00PM 40.2969 -95.6856 76° East 491 565 39,000  Level Minneapolis Center
05:01PM 40.3278 -95.5153 77° East 485 558 39,000  Level Minneapolis Center
05:02PM 40.3578 -95.3442 77° East 485 558 39,000  Level Minneapolis Center
05:03PM 40.3969 -95.1364 76° East 488 562 39,000  Level Minneapolis Center
05:05PM 40.4583 -94.7911 77° East 488 562 39,000  Level Minneapolis Center
05:06PM 40.4875 -94.6175 77° East 489 563 39,000  Level Minneapolis Center
05:07PM 40.5178 -94.4347 78° East 488 562 39,000  Level Minneapolis Center
05:08PM 40.5483 -94.2611 77° East 489 563 39,000  Level Minneapolis Center
05:09PM 40.5775 -94.0883 77° East 487 560 39,000  Level Minneapolis Center
05:10PM 40.6056 -93.9178 78° East 483 556 39,000  Level Minneapolis Center
05:11PM 40.6297 -93.7442 80° East 485 558 39,000  Level Minneapolis Center
05:12PM 40.6536 -93.5708 80° East 485 558 39,000  Level Minneapolis Center
05:13PM 40.6786 -93.3947 79° East 488 562 39,000 -420 Level Minneapolis Center
05:14PM 40.7100 -93.1836 79° East 490 564 38,200 -900 Descending Minneapolis Center
05:15PM 40.7339 -93.0064 80° East 492 566 37,200 -960 Descending Minneapolis Center
05:16PM 40.7586 -92.8292 80° East 491 565 36,300 -840 Descending Minneapolis Center
05:16PM 40.7633 -92.7925 80° East 490 564 36,100 -960 Descending Chicago Center
05:17PM 40.7883 -92.6133 80° East 495 570 35,100 -1,020 Descending Chicago Center
05:18PM 40.8142 -92.4303 79° East 506 582 34,100 -1,080 Descending Chicago Center
05:19PM 40.8425 -92.2200 80° East 487 560 32,900 -1,080 Descending Chicago Center
05:20PM 40.8644 -92.0489 80° East 477 549 31,900 -960 Descending Chicago Center
05:21PM 40.8878 -91.8794 80° East 471 542 31,000 -480 Descending Chicago Center
05:22PM 40.9094 -91.7086 80° East 472 543 31,000  Level Chicago Center
05:24PM 40.9303 -91.5389 81° East 471 542 31,000  Level Chicago Center
05:25PM 40.9522 -91.3725 80° East 465 535 31,000 -120 Level Chicago Center
05:26PM 40.9742 -91.1953 81° East 464 534 30,800 -1,320 Descending Chicago Center
05:27PM 40.9939 -91.0244 81° East 467 537 28,300 -2,340 Descending Chicago Center
05:28PM 41.0144 -90.8575 81° East 462 532 26,100 -1,920 Descending Chicago Center
05:29PM 41.0350 -90.6925 81° East 455 524 24,400 -1,440 Descending Chicago Center
05:30PM 41.0575 -90.4969 81° East 448 516 23,200 -720 Descending Chicago Center
05:31PM 41.0761 -90.3394 81° East 434 499 23,000 -480 Descending Chicago Center
05:32PM 41.0942 -90.1831 81° East 427 491 22,300 -1,320 Descending Chicago Center
05:33PM 41.1117 -90.0292 81° East 420 483 20,400 -1,860 Descending Chicago Center
05:34PM 41.1289 -89.8728 82° East 424 488 18,500 -1,800 Descending Chicago Center
05:35PM 41.1450 -89.7219 82° East 413 475 16,800 -1,320 Descending Chicago Center
05:36PM 41.1611 -89.5797 81° East 390 449 15,800 -1,020 Descending Chicago Center
05:37PM 41.1708 -89.4369 85° East 388 447 14,800 -1,020 Descending Chicago Center
05:38PM 41.1808 -89.2936 85° East 388 447 13,800 -1,080 Descending Chicago Center
05:39PM 41.1917 -89.1475 84° East 380 437 12,700 -1,020 Descending Chicago Center
05:40PM 41.2419 -89.0319 60° Northeast 365 420 11,700 -1,080 Descending Chicago Center
05:41PM 41.2983 -88.8978 61° Northeast 348 400 10,500 -840 Descending Chicago Center
05:42PM 41.3425 -88.7939 60° Northeast 329 379 10,000 -540 Descending Chicago Center
05:43PM 41.3833 -88.6881 63° Northeast 324 373 9,500 -540 Descending Chicago Center
05:44PM 41.4222 -88.5817 64° Northeast 324 373 9,000 -660 Descending Chicago Center
05:45PM 41.4597 -88.4747 65° Northeast 321 369 8,200 -780 Descending Chicago Center
05:46PM 41.4986 -88.3683 64° Northeast 320 368 7,500 -600 Descending Chicago Center
05:47PM 41.5131 -88.2522 81° East 317 365 7,000 -300 Descending Chicago Center
05:48PM 41.5261 -88.1392 81° East 308 354 6,900 -780 Descending Chicago Center
05:49PM 41.5417 -88.0269 79° East 306 352 5,500 -1,320 Descending Chicago Center
05:50PM 41.5581 -87.9203 78° East 297 342 4,300 -1,200 Descending Chicago Center
05:51PM 41.5819 -87.8017 75° East 286 329 3,100 -900 Descending Chicago Center
05:52PM 41.6272 -87.7281 51° Northeast 268 308 2,500 -300 Descending Chicago Center
05:53PM 41.6661 -87.6686 49° Northeast 240 276 2,500 -420 Level Chicago Center
05:54PM 41.7167 -87.6644 North 203 234 1,700 -480 Descending Chicago Center
05:55PM 41.7456 -87.6986 319° Northwest 163 188 1,600 -420 Descending Chicago Center
05:56PM 41.7714 -87.7333 315° West 142 163 900 -720 Descending Chicago Center
05:58PM 41.7833 -87.7500 51° Northeast  Level FlightAware Approximate